Friday, November 21, 2014, 12:32 PM EST

KGED, Georgetown Sussex Co Airport

Location: Georgetown, DE, United States Lat: 38.683
Local Time: 12:32 PM EST (17:32 GMT) Lon: -75.367
Time Zone: US/Eastern Elev: 52 ft

Show me the last for .
Show Decoded

2014-11-21 11:54 METAR KGED 211654Z AUTO 33011G17KT 10SM FEW060 02/M14 A3041 RMK AO2 SLP298
                 T00171139 =
2014-11-21 10:54 METAR KGED 211554Z AUTO 29014G20KT 10SM CLR 01/M14 A3041 RMK AO2 SLP298
                 T00111144 =
2014-11-21 09:54 METAR KGED 211454Z AUTO 31010G17KT 10SM SCT055 01/M13 A3040 RMK AO2 SLP295
                 T00111128 51032 =
2014-11-21 08:54 METAR KGED 211354Z AUTO 30009G17KT 10SM CLR 01/M13 A3039 RMK AO2 SLP289
                 T00061133 =
2014-11-21 07:54 METAR KGED 211254Z AUTO VRB06KT 10SM CLR M01/M13 A3035 RMK AO2 SLP279 T10061128
                 =
2014-11-21 06:54 METAR KGED 211154Z AUTO 31008G16KT 10SM CLR M01/M13 A3031 RMK AO2 SLP263
                 T10061133 10011 21011 53035 =
2014-11-21 05:54 METAR KGED 211054Z AUTO 33007KT 290V360 10SM CLR M01/M13 A3026 RMK AO2 SLP247
                 T10111128 =
2014-11-21 04:54 METAR KGED 210954Z AUTO 31006KT 10SM CLR M01/M12 A3023 RMK AO2 SLP235 T10061117
                 =
2014-11-21 03:54 METAR KGED 210854Z AUTO 10SM CLR M01/M11 A3020 RMK AO2 SLP227 T10061111 51028 =
2014-11-21 02:54 METAR KGED 210754Z AUTO VRB03KT 10SM CLR 00/M11 A3018 RMK AO2 SLP221 T00001111 =
2014-11-21 01:54 METAR KGED 210654Z AUTO 00000KT 10SM CLR 00/M11 A3015 RMK AO2 SLP211 T00001106 =
2014-11-21 00:54 METAR KGED 210554Z AUTO 33003KT 10SM CLR 01/M11 A3012 RMK AO2 SLP199 T00111106
                 10072 20011 53023 =
2014-11-20 23:54 METAR KGED 210454Z AUTO 35003KT 10SM CLR 02/M09 A3010 RMK AO2 SLP192 T00171089
                 401221006 =
2014-11-20 21:54 METAR KGED 210254Z AUTO 35004KT 10SM CLR 04/M07 A3005 RMK AO2 SLP176 T00391067
                 51035 =
2014-11-20 19:54 METAR KGED 210054Z AUTO VRB06KT 10SM CLR 07/M04 A2998 RMK AO2 SLP152 T00671039 =
2014-11-20 18:54 METAR KGED 202354Z AUTO 20003KT 10SM CLR 06/M03 A2995 RMK AO2 SLP141 T00611033
                 10122 20056 51013 =
2014-11-20 17:54 METAR KGED 202254Z AUTO 23005KT 10SM CLR 07/M04 A2994 RMK AO2 SLP138 T00721039 =
2014-11-20 16:54 METAR KGED 202154Z AUTO 24005KT 10SM CLR 10/M04 A2993 RMK AO2 SLP134 T01001044 =
2014-11-20 15:54 METAR KGED 202054Z AUTO 25007G17KT 10SM CLR 11/M05 A2991 RMK AO2 SLP128
                 T01111050 55006 =
2014-11-20 14:54 METAR KGED 201954Z AUTO 25008G17KT 10SM CLR 12/M05 A2990 RMK AO2 SLP125
                 T01171050 =
2014-11-20 13:54 METAR KGED 201854Z AUTO 24011G19KT 10SM CLR 12/M04 A2991 RMK AO2 SLP129
                 T01171039 =
2014-11-20 12:54 METAR KGED 201754Z AUTO 22014G23KT 10SM CLR 12/M03 A2993 RMK AO2 SLP134
                 T01171033 10122 21006 56033 =

Support USWX by starting your Amazon purchase here.